sensor_id;sensor_type;location;lat;lon;timestamp;P1;durP1;ratioP1;P2;durP2;ratioP2
75165;SDS011;63747;48.042;10.088;2024-01-10T00:01:25;49.80;;;26.93;;
75165;SDS011;63747;48.042;10.088;2024-01-10T00:04:27;46.65;;;25.33;;
75165;SDS011;63747;48.042;10.088;2024-01-10T00:07:27;46.63;;;25.13;;
75165;SDS011;63747;48.042;10.088;2024-01-10T00:10:28;47.63;;;26.70;;
75165;SDS011;63747;48.042;10.088;2024-01-10T00:13:29;46.40;;;25.33;;
75165;SDS011;63747;48.042;10.088;2024-01-10T00:16:31;46.92;;;24.13;;
75165;SDS011;63747;48.042;10.088;2024-01-10T00:19:32;52.17;;;27.83;;
75165;SDS011;63747;48.042;10.088;2024-01-10T00:22:33;49.60;;;27.53;;
75165;SDS011;63747;48.042;10.088;2024-01-10T00:25:33;41.13;;;21.47;;
75165;SDS011;63747;48.042;10.088;2024-01-10T00:28:34;50.53;;;27.23;;
75165;SDS011;63747;48.042;10.088;2024-01-10T00:31:35;44.93;;;25.70;;
75165;SDS011;63747;48.042;10.088;2024-01-10T00:34:36;47.73;;;27.30;;
75165;SDS011;63747;48.042;10.088;2024-01-10T00:37:36;38.73;;;22.30;;
75165;SDS011;63747;48.042;10.088;2024-01-10T00:40:37;49.13;;;25.53;;
75165;SDS011;63747;48.042;10.088;2024-01-10T00:43:38;55.97;;;25.33;;
75165;SDS011;63747;48.042;10.088;2024-01-10T00:46:38;48.07;;;25.00;;
75165;SDS011;63747;48.042;10.088;2024-01-10T00:49:39;49.67;;;27.37;;
75165;SDS011;63747;48.042;10.088;2024-01-10T00:52:40;49.70;;;26.00;;
75165;SDS011;63747;48.042;10.088;2024-01-10T00:55:40;50.40;;;27.53;;
75165;SDS011;63747;48.042;10.088;2024-01-10T00:58:41;46.73;;;26.07;;
75165;SDS011;63747;48.042;10.088;2024-01-10T01:01:42;43.93;;;23.80;;
75165;SDS011;63747;48.042;10.088;2024-01-10T01:04:42;47.77;;;25.00;;
75165;SDS011;63747;48.042;10.088;2024-01-10T01:07:43;46.23;;;26.80;;
75165;SDS011;63747;48.042;10.088;2024-01-10T01:10:44;47.57;;;26.17;;
75165;SDS011;63747;48.042;10.088;2024-01-10T01:13:44;44.47;;;25.50;;
75165;SDS011;63747;48.042;10.088;2024-01-10T01:16:45;46.30;;;26.23;;
75165;SDS011;63747;48.042;10.088;2024-01-10T01:19:46;48.47;;;24.77;;
75165;SDS011;63747;48.042;10.088;2024-01-10T01:22:46;45.80;;;22.13;;
75165;SDS011;63747;48.042;10.088;2024-01-10T01:25:47;44.47;;;24.47;;
75165;SDS011;63747;48.042;10.088;2024-01-10T01:28:48;51.27;;;26.73;;
75165;SDS011;63747;48.042;10.088;2024-01-10T01:31:49;47.90;;;26.33;;
75165;SDS011;63747;48.042;10.088;2024-01-10T01:34:50;49.17;;;27.35;;
75165;SDS011;63747;48.042;10.088;2024-01-10T01:37:51;49.83;;;26.70;;
75165;SDS011;63747;48.042;10.088;2024-01-10T01:40:51;46.47;;;24.77;;
75165;SDS011;63747;48.042;10.088;2024-01-10T01:43:52;46.93;;;27.47;;
75165;SDS011;63747;48.042;10.088;2024-01-10T01:46:53;46.83;;;27.23;;
75165;SDS011;63747;48.042;10.088;2024-01-10T01:49:54;39.97;;;25.70;;
75165;SDS011;63747;48.042;10.088;2024-01-10T01:52:54;51.90;;;26.17;;
75165;SDS011;63747;48.042;10.088;2024-01-10T01:55:55;48.70;;;26.40;;
75165;SDS011;63747;48.042;10.088;2024-01-10T01:58:56;48.63;;;25.10;;
75165;SDS011;63747;48.042;10.088;2024-01-10T02:01:57;43.67;;;25.17;;
75165;SDS011;63747;48.042;10.088;2024-01-10T02:05:03;46.33;;;24.98;;
75165;SDS011;63747;48.042;10.088;2024-01-10T02:08:04;51.65;;;24.83;;
75165;SDS011;63747;48.042;10.088;2024-01-10T02:11:05;50.55;;;26.25;;
75165;SDS011;63747;48.042;10.088;2024-01-10T02:14:07;48.10;;;26.70;;
75165;SDS011;63747;48.042;10.088;2024-01-10T02:17:07;49.13;;;28.03;;
75165;SDS011;63747;48.042;10.088;2024-01-10T02:20:11;42.77;;;25.13;;
75165;SDS011;63747;48.042;10.088;2024-01-10T02:23:15;48.75;;;25.35;;
75165;SDS011;63747;48.042;10.088;2024-01-10T02:26:16;37.60;;;21.63;;
75165;SDS011;63747;48.042;10.088;2024-01-10T02:29:17;52.50;;;27.77;;
75165;SDS011;63747;48.042;10.088;2024-01-10T02:32:18;42.70;;;22.63;;
75165;SDS011;63747;48.042;10.088;2024-01-10T02:35:18;50.77;;;26.00;;
75165;SDS011;63747;48.042;10.088;2024-01-10T02:38:19;45.97;;;24.47;;
75165;SDS011;63747;48.042;10.088;2024-01-10T02:41:23;46.88;;;25.75;;
75165;SDS011;63747;48.042;10.088;2024-01-10T02:44:24;50.97;;;26.50;;
75165;SDS011;63747;48.042;10.088;2024-01-10T02:47:24;42.80;;;22.63;;
75165;SDS011;63747;48.042;10.088;2024-01-10T02:50:25;51.97;;;26.77;;
75165;SDS011;63747;48.042;10.088;2024-01-10T02:53:26;47.30;;;26.50;;
75165;SDS011;63747;48.042;10.088;2024-01-10T02:56:26;34.23;;;20.70;;
75165;SDS011;63747;48.042;10.088;2024-01-10T02:59:27;46.63;;;25.90;;
75165;SDS011;63747;48.042;10.088;2024-01-10T03:02:28;47.70;;;24.73;;
75165;SDS011;63747;48.042;10.088;2024-01-10T03:05:29;48.00;;;25.60;;
75165;SDS011;63747;48.042;10.088;2024-01-10T03:08:29;49.27;;;26.23;;
75165;SDS011;63747;48.042;10.088;2024-01-10T03:11:30;48.43;;;25.53;;
75165;SDS011;63747;48.042;10.088;2024-01-10T03:14:32;47.63;;;25.67;;
75165;SDS011;63747;48.042;10.088;2024-01-10T03:17:33;46.17;;;24.38;;
75165;SDS011;63747;48.042;10.088;2024-01-10T03:20:35;48.60;;;24.35;;
75165;SDS011;63747;48.042;10.088;2024-01-10T03:23:36;52.00;;;27.70;;
75165;SDS011;63747;48.042;10.088;2024-01-10T03:26:37;50.87;;;28.03;;
75165;SDS011;63747;48.042;10.088;2024-01-10T03:29:38;46.90;;;25.37;;
75165;SDS011;63747;48.042;10.088;2024-01-10T03:32:38;49.17;;;26.60;;
75165;SDS011;63747;48.042;10.088;2024-01-10T03:35:40;49.85;;;25.25;;
75165;SDS011;63747;48.042;10.088;2024-01-10T03:38:40;46.80;;;26.13;;
75165;SDS011;63747;48.042;10.088;2024-01-10T03:41:42;46.25;;;23.85;;
75165;SDS011;63747;48.042;10.088;2024-01-10T03:44:42;48.00;;;25.93;;
75165;SDS011;63747;48.042;10.088;2024-01-10T03:47:43;49.97;;;26.67;;
75165;SDS011;63747;48.042;10.088;2024-01-10T03:50:44;46.93;;;27.47;;
75165;SDS011;63747;48.042;10.088;2024-01-10T03:53:45;45.37;;;24.10;;
75165;SDS011;63747;48.042;10.088;2024-01-10T03:56:46;47.00;;;24.93;;
75165;SDS011;63747;48.042;10.088;2024-01-10T03:59:47;52.40;;;25.30;;
75165;SDS011;63747;48.042;10.088;2024-01-10T04:02:47;45.77;;;24.13;;
75165;SDS011;63747;48.042;10.088;2024-01-10T04:05:48;46.77;;;23.87;;
75165;SDS011;63747;48.042;10.088;2024-01-10T04:08:49;48.03;;;25.57;;
75165;SDS011;63747;48.042;10.088;2024-01-10T04:11:50;48.90;;;21.37;;
75165;SDS011;63747;48.042;10.088;2024-01-10T04:14:51;46.90;;;24.10;;
75165;SDS011;63747;48.042;10.088;2024-01-10T04:17:51;43.10;;;23.30;;
75165;SDS011;63747;48.042;10.088;2024-01-10T04:20:52;41.43;;;22.57;;
75165;SDS011;63747;48.042;10.088;2024-01-10T04:23:53;46.57;;;24.43;;
75165;SDS011;63747;48.042;10.088;2024-01-10T04:26:53;49.40;;;23.33;;
75165;SDS011;63747;48.042;10.088;2024-01-10T04:29:54;42.63;;;23.57;;
75165;SDS011;63747;48.042;10.088;2024-01-10T04:32:55;39.97;;;22.43;;
75165;SDS011;63747;48.042;10.088;2024-01-10T04:35:56;48.37;;;26.43;;
75165;SDS011;63747;48.042;10.088;2024-01-10T04:38:56;41.00;;;20.90;;
75165;SDS011;63747;48.042;10.088;2024-01-10T04:41:57;46.33;;;23.73;;
75165;SDS011;63747;48.042;10.088;2024-01-10T04:44:58;45.77;;;23.13;;
75165;SDS011;63747;48.042;10.088;2024-01-10T04:47:58;46.93;;;24.63;;
75165;SDS011;63747;48.042;10.088;2024-01-10T04:50:59;45.27;;;22.63;;
75165;SDS011;63747;48.042;10.088;2024-01-10T04:54:00;45.23;;;23.03;;
75165;SDS011;63747;48.042;10.088;2024-01-10T04:57:01;44.67;;;21.97;;
75165;SDS011;63747;48.042;10.088;2024-01-10T05:00:02;46.33;;;26.83;;
75165;SDS011;63747;48.042;10.088;2024-01-10T05:03:12;46.90;;;24.08;;
75165;SDS011;63747;48.042;10.088;2024-01-10T05:06:13;45.80;;;25.37;;
75165;SDS011;63747;48.042;10.088;2024-01-10T05:09:14;44.37;;;24.90;;
75165;SDS011;63747;48.042;10.088;2024-01-10T05:12:14;45.00;;;24.20;;
75165;SDS011;63747;48.042;10.088;2024-01-10T05:15:15;45.60;;;23.77;;
75165;SDS011;63747;48.042;10.088;2024-01-10T05:18:16;43.93;;;23.23;;
75165;SDS011;63747;48.042;10.088;2024-01-10T05:21:17;49.37;;;25.77;;
75165;SDS011;63747;48.042;10.088;2024-01-10T05:24:18;44.43;;;23.20;;
75165;SDS011;63747;48.042;10.088;2024-01-10T05:27:19;51.97;;;25.27;;
75165;SDS011;63747;48.042;10.088;2024-01-10T05:30:20;47.30;;;24.27;;
75165;SDS011;63747;48.042;10.088;2024-01-10T05:33:20;51.03;;;25.87;;
75165;SDS011;63747;48.042;10.088;2024-01-10T05:36:21;52.07;;;25.93;;
75165;SDS011;63747;48.042;10.088;2024-01-10T05:39:23;50.55;;;22.52;;
75165;SDS011;63747;48.042;10.088;2024-01-10T05:42:24;37.03;;;18.20;;
75165;SDS011;63747;48.042;10.088;2024-01-10T05:45:25;52.25;;;26.92;;
75165;SDS011;63747;48.042;10.088;2024-01-10T05:48:26;51.47;;;25.93;;
75165;SDS011;63747;48.042;10.088;2024-01-10T05:51:27;47.65;;;24.45;;
75165;SDS011;63747;48.042;10.088;2024-01-10T05:54:29;40.83;;;19.83;;
75165;SDS011;63747;48.042;10.088;2024-01-10T05:57:30;45.23;;;23.37;;
75165;SDS011;63747;48.042;10.088;2024-01-10T06:00:32;47.25;;;23.13;;
75165;SDS011;63747;48.042;10.088;2024-01-10T06:03:33;47.90;;;24.77;;
75165;SDS011;63747;48.042;10.088;2024-01-10T06:06:33;45.97;;;23.47;;
75165;SDS011;63747;48.042;10.088;2024-01-10T06:09:34;44.13;;;23.60;;
75165;SDS011;63747;48.042;10.088;2024-01-10T06:12:35;44.30;;;23.67;;
75165;SDS011;63747;48.042;10.088;2024-01-10T06:15:36;51.40;;;26.42;;
75165;SDS011;63747;48.042;10.088;2024-01-10T06:18:37;47.00;;;25.47;;
75165;SDS011;63747;48.042;10.088;2024-01-10T06:21:38;53.05;;;27.27;;
75165;SDS011;63747;48.042;10.088;2024-01-10T06:24:42;49.40;;;24.30;;
75165;SDS011;63747;48.042;10.088;2024-01-10T06:27:43;50.40;;;25.70;;
75165;SDS011;63747;48.042;10.088;2024-01-10T06:30:44;48.97;;;27.20;;
75165;SDS011;63747;48.042;10.088;2024-01-10T06:33:45;50.20;;;26.53;;
75165;SDS011;63747;48.042;10.088;2024-01-10T06:36:45;48.87;;;24.53;;
75165;SDS011;63747;48.042;10.088;2024-01-10T06:39:46;38.97;;;20.60;;
75165;SDS011;63747;48.042;10.088;2024-01-10T06:42:46;50.57;;;26.20;;
75165;SDS011;63747;48.042;10.088;2024-01-10T06:45:47;46.20;;;24.37;;
75165;SDS011;63747;48.042;10.088;2024-01-10T06:48:48;49.83;;;24.87;;
75165;SDS011;63747;48.042;10.088;2024-01-10T06:51:50;54.15;;;25.50;;
75165;SDS011;63747;48.042;10.088;2024-01-10T06:54:51;55.47;;;27.67;;
75165;SDS011;63747;48.042;10.088;2024-01-10T06:57:52;49.00;;;23.77;;
75165;SDS011;63747;48.042;10.088;2024-01-10T07:00:53;51.07;;;27.10;;
75165;SDS011;63747;48.042;10.088;2024-01-10T07:03:53;49.53;;;24.77;;
75165;SDS011;63747;48.042;10.088;2024-01-10T07:06:54;46.63;;;23.67;;
75165;SDS011;63747;48.042;10.088;2024-01-10T07:09:55;41.10;;;21.97;;
75165;SDS011;63747;48.042;10.088;2024-01-10T07:12:56;52.50;;;23.07;;
75165;SDS011;63747;48.042;10.088;2024-01-10T07:15:57;55.37;;;27.47;;
75165;SDS011;63747;48.042;10.088;2024-01-10T07:18:57;56.57;;;28.40;;
75165;SDS011;63747;48.042;10.088;2024-01-10T07:21:59;49.90;;;25.13;;
75165;SDS011;63747;48.042;10.088;2024-01-10T07:25:01;47.00;;;23.15;;
75165;SDS011;63747;48.042;10.088;2024-01-10T07:28:01;51.33;;;22.87;;
75165;SDS011;63747;48.042;10.088;2024-01-10T07:31:03;51.80;;;23.87;;
75165;SDS011;63747;48.042;10.088;2024-01-10T07:34:03;42.10;;;21.20;;
75165;SDS011;63747;48.042;10.088;2024-01-10T07:37:05;43.00;;;21.13;;
75165;SDS011;63747;48.042;10.088;2024-01-10T07:40:06;42.10;;;21.93;;
75165;SDS011;63747;48.042;10.088;2024-01-10T07:43:08;48.42;;;23.45;;
75165;SDS011;63747;48.042;10.088;2024-01-10T07:46:11;46.22;;;23.15;;
75165;SDS011;63747;48.042;10.088;2024-01-10T07:49:12;52.27;;;25.43;;
75165;SDS011;63747;48.042;10.088;2024-01-10T07:52:12;46.47;;;22.67;;
75165;SDS011;63747;48.042;10.088;2024-01-10T07:55:13;50.97;;;19.93;;
75165;SDS011;63747;48.042;10.088;2024-01-10T07:58:14;55.10;;;26.53;;
75165;SDS011;63747;48.042;10.088;2024-01-10T08:01:16;53.92;;;25.88;;
75165;SDS011;63747;48.042;10.088;2024-01-10T08:04:16;49.23;;;22.83;;
75165;SDS011;63747;48.042;10.088;2024-01-10T08:07:17;41.03;;;20.23;;
75165;SDS011;63747;48.042;10.088;2024-01-10T08:10:18;50.43;;;24.50;;
75165;SDS011;63747;48.042;10.088;2024-01-10T08:13:18;51.73;;;25.80;;
75165;SDS011;63747;48.042;10.088;2024-01-10T08:16:19;50.97;;;24.10;;
75165;SDS011;63747;48.042;10.088;2024-01-10T08:19:20;41.07;;;21.00;;
75165;SDS011;63747;48.042;10.088;2024-01-10T08:22:21;53.00;;;24.13;;
75165;SDS011;63747;48.042;10.088;2024-01-10T08:25:23;48.65;;;25.52;;
75165;SDS011;63747;48.042;10.088;2024-01-10T08:28:23;52.87;;;25.17;;
75165;SDS011;63747;48.042;10.088;2024-01-10T08:31:26;47.72;;;23.95;;
75165;SDS011;63747;48.042;10.088;2024-01-10T08:34:27;55.57;;;27.30;;
75165;SDS011;63747;48.042;10.088;2024-01-10T08:37:27;49.03;;;21.23;;
75165;SDS011;63747;48.042;10.088;2024-01-10T08:40:28;50.03;;;23.70;;
75165;SDS011;63747;48.042;10.088;2024-01-10T08:43:29;55.20;;;27.55;;
75165;SDS011;63747;48.042;10.088;2024-01-10T08:46:30;51.90;;;24.63;;
75165;SDS011;63747;48.042;10.088;2024-01-10T08:49:31;49.93;;;24.93;;
75165;SDS011;63747;48.042;10.088;2024-01-10T08:52:32;49.23;;;23.87;;
75165;SDS011;63747;48.042;10.088;2024-01-10T08:55:33;50.57;;;25.97;;
75165;SDS011;63747;48.042;10.088;2024-01-10T08:58:34;51.60;;;25.73;;
75165;SDS011;63747;48.042;10.088;2024-01-10T09:01:34;58.40;;;26.47;;
75165;SDS011;63747;48.042;10.088;2024-01-10T09:04:35;56.13;;;26.53;;
75165;SDS011;63747;48.042;10.088;2024-01-10T09:07:36;52.50;;;25.60;;
75165;SDS011;63747;48.042;10.088;2024-01-10T09:10:37;42.25;;;21.05;;
75165;SDS011;63747;48.042;10.088;2024-01-10T09:13:38;53.07;;;25.90;;
75165;SDS011;63747;48.042;10.088;2024-01-10T09:16:40;53.47;;;27.25;;
75165;SDS011;63747;48.042;10.088;2024-01-10T09:19:41;58.90;;;29.07;;
75165;SDS011;63747;48.042;10.088;2024-01-10T09:22:41;55.80;;;27.90;;
75165;SDS011;63747;48.042;10.088;2024-01-10T09:25:43;54.03;;;26.17;;
75165;SDS011;63747;48.042;10.088;2024-01-10T09:28:44;57.47;;;26.67;;
75165;SDS011;63747;48.042;10.088;2024-01-10T09:31:44;54.13;;;25.77;;
75165;SDS011;63747;48.042;10.088;2024-01-10T09:34:45;50.43;;;26.47;;
75165;SDS011;63747;48.042;10.088;2024-01-10T09:37:46;54.50;;;27.43;;
75165;SDS011;63747;48.042;10.088;2024-01-10T09:40:47;55.37;;;27.53;;
75165;SDS011;63747;48.042;10.088;2024-01-10T09:43:48;55.70;;;27.55;;
75165;SDS011;63747;48.042;10.088;2024-01-10T09:46:50;55.27;;;27.27;;
75165;SDS011;63747;48.042;10.088;2024-01-10T09:49:52;49.80;;;26.77;;
75165;SDS011;63747;48.042;10.088;2024-01-10T09:52:54;52.50;;;27.23;;
75165;SDS011;63747;48.042;10.088;2024-01-10T09:56:06;54.60;;;26.58;;
75165;SDS011;63747;48.042;10.088;2024-01-10T09:59:10;51.80;;;27.10;;
75165;SDS011;63747;48.042;10.088;2024-01-10T10:02:11;51.97;;;28.03;;
75165;SDS011;63747;48.042;10.088;2024-01-10T10:05:13;50.67;;;26.15;;
75165;SDS011;63747;48.042;10.088;2024-01-10T10:08:17;55.30;;;28.77;;
75165;SDS011;63747;48.042;10.088;2024-01-10T10:11:25;52.70;;;28.08;;
75165;SDS011;63747;48.042;10.088;2024-01-10T10:14:28;61.25;;;29.85;;
75165;SDS011;63747;48.042;10.088;2024-01-10T10:17:30;59.15;;;29.95;;
75165;SDS011;63747;48.042;10.088;2024-01-10T10:20:31;68.13;;;34.17;;
75165;SDS011;63747;48.042;10.088;2024-01-10T10:23:33;72.75;;;36.70;;
75165;SDS011;63747;48.042;10.088;2024-01-10T10:26:34;70.97;;;37.75;;
75165;SDS011;63747;48.042;10.088;2024-01-10T10:29:35;64.83;;;33.00;;
75165;SDS011;63747;48.042;10.088;2024-01-10T10:32:40;60.72;;;30.45;;
75165;SDS011;63747;48.042;10.088;2024-01-10T10:35:40;57.53;;;28.90;;
75165;SDS011;63747;48.042;10.088;2024-01-10T10:38:41;62.97;;;31.40;;
75165;SDS011;63747;48.042;10.088;2024-01-10T10:41:42;57.90;;;27.93;;
75165;SDS011;63747;48.042;10.088;2024-01-10T10:44:43;61.20;;;30.27;;
75165;SDS011;63747;48.042;10.088;2024-01-10T10:47:46;58.85;;;29.15;;
75165;SDS011;63747;48.042;10.088;2024-01-10T10:50:54;51.70;;;26.17;;
75165;SDS011;63747;48.042;10.088;2024-01-10T10:54:04;55.05;;;30.05;;
75165;SDS011;63747;48.042;10.088;2024-01-10T10:57:05;55.97;;;29.25;;
75165;SDS011;63747;48.042;10.088;2024-01-10T11:00:07;66.15;;;30.60;;
75165;SDS011;63747;48.042;10.088;2024-01-10T11:06:11;72.60;;;32.22;;
75165;SDS011;63747;48.042;10.088;2024-01-10T11:09:13;71.20;;;33.37;;
75165;SDS011;63747;48.042;10.088;2024-01-10T11:26:31;74.88;;;34.25;;
75165;SDS011;63747;48.042;10.088;2024-01-10T11:32:33;96.85;;;32.75;;
75165;SDS011;63747;48.042;10.088;2024-01-10T11:35:35;99.75;;;33.40;;
75165;SDS011;63747;48.042;10.088;2024-01-10T11:41:48;76.32;;;33.53;;
75165;SDS011;63747;48.042;10.088;2024-01-10T11:44:49;118.93;;;34.87;;
75165;SDS011;63747;48.042;10.088;2024-01-10T11:47:51;106.13;;;31.98;;
75165;SDS011;63747;48.042;10.088;2024-01-10T11:50:52;99.57;;;34.27;;
75165;SDS011;63747;48.042;10.088;2024-01-10T11:53:53;87.17;;;34.40;;
75165;SDS011;63747;48.042;10.088;2024-01-10T11:56:54;102.78;;;33.40;;
75165;SDS011;63747;48.042;10.088;2024-01-10T11:59:55;124.00;;;35.73;;
75165;SDS011;63747;48.042;10.088;2024-01-10T12:02:59;91.13;;;35.30;;
75165;SDS011;63747;48.042;10.088;2024-01-10T12:06:00;144.73;;;34.73;;
75165;SDS011;63747;48.042;10.088;2024-01-10T12:09:01;76.10;;;34.57;;
75165;SDS011;63747;48.042;10.088;2024-01-10T12:12:08;81.05;;;32.17;;
75165;SDS011;63747;48.042;10.088;2024-01-10T12:15:11;96.03;;;32.50;;
75165;SDS011;63747;48.042;10.088;2024-01-10T12:18:12;115.73;;;34.70;;
75165;SDS011;63747;48.042;10.088;2024-01-10T12:21:13;116.30;;;33.37;;
75165;SDS011;63747;48.042;10.088;2024-01-10T12:24:13;87.97;;;34.93;;
75165;SDS011;63747;48.042;10.088;2024-01-10T12:27:20;103.83;;;35.73;;
75165;SDS011;63747;48.042;10.088;2024-01-10T12:30:21;99.47;;;32.38;;
75165;SDS011;63747;48.042;10.088;2024-01-10T12:33:22;87.33;;;30.07;;
75165;SDS011;63747;48.042;10.088;2024-01-10T12:36:26;96.63;;;32.97;;
75165;SDS011;63747;48.042;10.088;2024-01-10T12:39:27;83.70;;;29.53;;
75165;SDS011;63747;48.042;10.088;2024-01-10T12:42:31;103.15;;;31.55;;
75165;SDS011;63747;48.042;10.088;2024-01-10T12:45:33;106.50;;;31.38;;
75165;SDS011;63747;48.042;10.088;2024-01-10T12:48:34;78.83;;;29.60;;
75165;SDS011;63747;48.042;10.088;2024-01-10T12:51:41;85.93;;;30.65;;
75165;SDS011;63747;48.042;10.088;2024-01-10T12:54:43;77.45;;;28.85;;
75165;SDS011;63747;48.042;10.088;2024-01-10T12:57:45;61.38;;;27.15;;
75165;SDS011;63747;48.042;10.088;2024-01-10T13:00:46;67.95;;;28.33;;
75165;SDS011;63747;48.042;10.088;2024-01-10T13:03:48;70.20;;;30.10;;
75165;SDS011;63747;48.042;10.088;2024-01-10T13:06:49;47.13;;;23.23;;
75165;SDS011;63747;48.042;10.088;2024-01-10T13:09:50;45.10;;;24.03;;
75165;SDS011;63747;48.042;10.088;2024-01-10T13:12:52;52.95;;;24.67;;
75165;SDS011;63747;48.042;10.088;2024-01-10T13:15:54;46.42;;;23.98;;
75165;SDS011;63747;48.042;10.088;2024-01-10T13:18:56;43.65;;;23.17;;
75165;SDS011;63747;48.042;10.088;2024-01-10T13:21:58;51.65;;;24.75;;
75165;SDS011;63747;48.042;10.088;2024-01-10T13:25:00;50.00;;;25.63;;
75165;SDS011;63747;48.042;10.088;2024-01-10T13:28:05;45.63;;;24.70;;
75165;SDS011;63747;48.042;10.088;2024-01-10T13:31:06;46.92;;;23.52;;
75165;SDS011;63747;48.042;10.088;2024-01-10T13:34:06;38.70;;;22.13;;
75165;SDS011;63747;48.042;10.088;2024-01-10T13:37:07;43.20;;;22.53;;
75165;SDS011;63747;48.042;10.088;2024-01-10T13:40:10;42.88;;;22.77;;
75165;SDS011;63747;48.042;10.088;2024-01-10T13:43:12;41.42;;;22.60;;
75165;SDS011;63747;48.042;10.088;2024-01-10T13:46:13;47.43;;;24.73;;
75165;SDS011;63747;48.042;10.088;2024-01-10T13:49:17;47.67;;;23.63;;
75165;SDS011;63747;48.042;10.088;2024-01-10T13:52:18;46.57;;;25.33;;
75165;SDS011;63747;48.042;10.088;2024-01-10T13:55:19;52.57;;;25.47;;
75165;SDS011;63747;48.042;10.088;2024-01-10T13:58:20;52.70;;;25.83;;
75165;SDS011;63747;48.042;10.088;2024-01-10T14:01:23;47.25;;;24.45;;
75165;SDS011;63747;48.042;10.088;2024-01-10T14:04:24;47.87;;;24.60;;
75165;SDS011;63747;48.042;10.088;2024-01-10T14:07:25;49.33;;;24.87;;
75165;SDS011;63747;48.042;10.088;2024-01-10T14:10:25;40.03;;;21.47;;
75165;SDS011;63747;48.042;10.088;2024-01-10T14:13:27;39.63;;;22.08;;
75165;SDS011;63747;48.042;10.088;2024-01-10T14:16:27;45.30;;;23.23;;
75165;SDS011;63747;48.042;10.088;2024-01-10T14:19:28;48.90;;;24.30;;
75165;SDS011;63747;48.042;10.088;2024-01-10T14:22:29;43.90;;;22.27;;
75165;SDS011;63747;48.042;10.088;2024-01-10T14:25:30;45.13;;;23.70;;
75165;SDS011;63747;48.042;10.088;2024-01-10T14:28:31;48.38;;;24.52;;
75165;SDS011;63747;48.042;10.088;2024-01-10T14:31:32;49.60;;;26.65;;
75165;SDS011;63747;48.042;10.088;2024-01-10T14:34:33;54.93;;;28.37;;
75165;SDS011;63747;48.042;10.088;2024-01-10T14:37:34;50.43;;;26.53;;
75165;SDS011;63747;48.042;10.088;2024-01-10T14:43:37;50.17;;;25.20;;
75165;SDS011;63747;48.042;10.088;2024-01-10T14:46:38;51.10;;;26.93;;
75165;SDS011;63747;48.042;10.088;2024-01-10T14:49:38;52.43;;;28.93;;
75165;SDS011;63747;48.042;10.088;2024-01-10T14:52:39;58.37;;;29.93;;
75165;SDS011;63747;48.042;10.088;2024-01-10T14:55:40;53.27;;;29.37;;
75165;SDS011;63747;48.042;10.088;2024-01-10T14:58:41;55.00;;;29.43;;
75165;SDS011;63747;48.042;10.088;2024-01-10T15:01:48;53.20;;;29.10;;
75165;SDS011;63747;48.042;10.088;2024-01-10T15:04:48;55.22;;;28.05;;
75165;SDS011;63747;48.042;10.088;2024-01-10T15:07:49;49.27;;;26.63;;
75165;SDS011;63747;48.042;10.088;2024-01-10T15:10:50;52.87;;;26.37;;
75165;SDS011;63747;48.042;10.088;2024-01-10T15:13:51;49.87;;;26.67;;
75165;SDS011;63747;48.042;10.088;2024-01-10T15:16:52;50.20;;;25.37;;
75165;SDS011;63747;48.042;10.088;2024-01-10T15:19:53;45.10;;;25.00;;
75165;SDS011;63747;48.042;10.088;2024-01-10T15:22:54;42.77;;;23.00;;
75165;SDS011;63747;48.042;10.088;2024-01-10T15:25:55;42.03;;;22.53;;
75165;SDS011;63747;48.042;10.088;2024-01-10T15:28:55;42.27;;;21.33;;
75165;SDS011;63747;48.042;10.088;2024-01-10T15:31:58;37.47;;;21.35;;
75165;SDS011;63747;48.042;10.088;2024-01-10T15:34:59;38.20;;;20.57;;
75165;SDS011;63747;48.042;10.088;2024-01-10T15:38:04;41.67;;;21.50;;
75165;SDS011;63747;48.042;10.088;2024-01-10T15:41:08;46.83;;;23.20;;
75165;SDS011;63747;48.042;10.088;2024-01-10T15:44:10;41.95;;;21.13;;
75165;SDS011;63747;48.042;10.088;2024-01-10T15:47:11;39.80;;;21.00;;
75165;SDS011;63747;48.042;10.088;2024-01-10T15:50:12;43.77;;;23.50;;
75165;SDS011;63747;48.042;10.088;2024-01-10T15:53:13;45.57;;;23.27;;
75165;SDS011;63747;48.042;10.088;2024-01-10T15:56:16;42.08;;;22.75;;
75165;SDS011;63747;48.042;10.088;2024-01-10T15:59:18;44.83;;;22.80;;
75165;SDS011;63747;48.042;10.088;2024-01-10T16:02:19;44.97;;;23.00;;
75165;SDS011;63747;48.042;10.088;2024-01-10T16:05:20;46.35;;;23.65;;
75165;SDS011;63747;48.042;10.088;2024-01-10T16:08:22;40.90;;;21.75;;
75165;SDS011;63747;48.042;10.088;2024-01-10T16:11:23;47.07;;;22.50;;
75165;SDS011;63747;48.042;10.088;2024-01-10T16:14:25;48.30;;;22.75;;
75165;SDS011;63747;48.042;10.088;2024-01-10T16:17:26;41.07;;;21.33;;
75165;SDS011;63747;48.042;10.088;2024-01-10T16:20:27;49.07;;;24.10;;
75165;SDS011;63747;48.042;10.088;2024-01-10T16:23:28;45.67;;;23.05;;
75165;SDS011;63747;48.042;10.088;2024-01-10T16:26:30;47.88;;;24.33;;
75165;SDS011;63747;48.042;10.088;2024-01-10T16:29:31;46.10;;;23.50;;
75165;SDS011;63747;48.042;10.088;2024-01-10T16:32:32;48.77;;;24.60;;
75165;SDS011;63747;48.042;10.088;2024-01-10T16:35:33;46.23;;;24.17;;
75165;SDS011;63747;48.042;10.088;2024-01-10T16:38:33;47.33;;;25.10;;
75165;SDS011;63747;48.042;10.088;2024-01-10T16:41:38;46.60;;;24.60;;
75165;SDS011;63747;48.042;10.088;2024-01-10T16:44:39;45.80;;;25.03;;
75165;SDS011;63747;48.042;10.088;2024-01-10T16:47:39;49.77;;;25.60;;
75165;SDS011;63747;48.042;10.088;2024-01-10T16:50:40;51.50;;;26.40;;
75165;SDS011;63747;48.042;10.088;2024-01-10T16:53:41;48.97;;;26.07;;
75165;SDS011;63747;48.042;10.088;2024-01-10T16:56:42;48.13;;;24.13;;
75165;SDS011;63747;48.042;10.088;2024-01-10T16:59:42;49.27;;;24.97;;
75165;SDS011;63747;48.042;10.088;2024-01-10T17:02:43;49.17;;;24.13;;
75165;SDS011;63747;48.042;10.088;2024-01-10T17:05:44;51.40;;;25.13;;
75165;SDS011;63747;48.042;10.088;2024-01-10T17:08:47;49.53;;;24.52;;
75165;SDS011;63747;48.042;10.088;2024-01-10T17:11:47;53.83;;;24.30;;
75165;SDS011;63747;48.042;10.088;2024-01-10T17:14:48;55.00;;;25.27;;
75165;SDS011;63747;48.042;10.088;2024-01-10T17:17:49;57.03;;;25.57;;
75165;SDS011;63747;48.042;10.088;2024-01-10T17:20:50;52.90;;;25.30;;
75165;SDS011;63747;48.042;10.088;2024-01-10T17:23:50;55.37;;;26.23;;
75165;SDS011;63747;48.042;10.088;2024-01-10T17:26:51;55.97;;;26.27;;
75165;SDS011;63747;48.042;10.088;2024-01-10T17:29:52;58.80;;;26.97;;
75165;SDS011;63747;48.042;10.088;2024-01-10T17:32:53;66.17;;;28.67;;
75165;SDS011;63747;48.042;10.088;2024-01-10T17:35:54;62.20;;;27.13;;
75165;SDS011;63747;48.042;10.088;2024-01-10T17:38:54;66.43;;;29.90;;
75165;SDS011;63747;48.042;10.088;2024-01-10T17:41:55;63.97;;;28.83;;
75165;SDS011;63747;48.042;10.088;2024-01-10T17:44:56;67.53;;;29.57;;
75165;SDS011;63747;48.042;10.088;2024-01-10T17:47:57;67.87;;;30.43;;
75165;SDS011;63747;48.042;10.088;2024-01-10T17:50:58;66.90;;;28.97;;